Bethel Airport
PABE : now visible

Airfield :











YOU CAN JOIN US ON...

 
LOGIN :

Register | Disclaimer

   EN    FR    IT 

 









Legend :    VFR   Marginal VFR   IFR   Intensive IFR   Very Intensive IFR
Visi :
Ceiling :
>= 8 km
>= 3000ft
5 to 8 km
1000 to 3000 ft
1500m to 5 km
500 to 1000 ft
800 to 1500m
200 to 500 ft
< 800m
< 200 ft
Symbols :   Thunderstorms  Fog  Heavy snow  Heavy precipitations  Wind > 20 kt






- Airport Elevation : 126 ft
- IATA code : BET


PABE - Bethel

CURRENT METAR :
  • 202228Z 22009KT 10SM BKN012 BKN065 BKN090 16/14 A2982 RMK AO2 RAE02 P0000 T01610139 $

EXPIRED METARs :
  • 202203Z 24009KT 10SM SCT007 BKN045 OVC065 16/13 A2983 RMK AO2 RAE02 P0000 T01560133 $
  • 202153Z 25007KT 10SM -RA BKN007 OVC070 15/13 A2983 RMK AO2 SLP103 P0002 T01500133 $
  • 202139Z 24006KT 10SM -RA BKN006 BKN055 OVC075 15/14 A2984 RMK AO2 P0002 T01500139 $
  • 202059Z 20006KT 7SM -RA FEW007 OVC060 14/13 A2984 RMK AO2 P0001 T01390128 $
  • 202053Z 20006KT 5SM -RA BR BKN007 OVC065 14/13 A2984 RMK AO2 SLP105 P0008 60010 T01390128 58004 $
  • 201953Z 19004KT 6SM -RA BR OVC006 14/13 A2985 RMK AO2 SLP109 P0002 T01390128 $

TAF PABE
Valid from the 20 at 19:00 until the 21 at 18:00 UTC


201927Z 2019/2118 VRB05KT P6SM -RA OVC004
TEMPO 2019/2021 5SM -RA BR OVC002
FM202100 VRB06KT 6SM BR OVC007
FM211200 23008KT P6SM OVC050
PAZA FIR / North America



MET'MAP, your aeronautical weather chart ! - Copyright ORBIFLY December 2007 - Disclaimer

ORBIFLY MET'MAP TEAM :

Programming & Development : Alexandra Zaïnal
Concept & original design : Baudouin d'Aumeries
Assistance for programming : Marc-Olivier Méhu
Technical & hardware support : Manuel Goepfert

Contact : metmap@orbifly.com




SOURCES & CREDITS :

   NOAA       Earth
Advisory